Aérodrome :
LOGIN :

S'inscrire | Disclaimer

   EN    FR    IT 

 










Légende :    VFR   VFR Marginal   IFR   IFR Intensif   IFR Très Intensif
Visi : 
Plafond : 
>= 8 km
>= 3000ft
5 à 8 km
1000 à 3000 ft
1500m à 5 km
500 à 1000 ft
800 à 1500m
200 à 500 ft
< 800m
< 200 ft
Symboles :   Orages  Brouillard  Fortes neiges  Fortes précipitations  Vent > 20 kt
SIGMETs :   Divers  Orages  Givrage  Turbulence  Onde Orograph.  Cendres Volcan.






- Altitude de l'aérodrome : 218 ft


EGYD - RAF Cranwell

DERNIER METAR :
  • 151244Z 03011KT 9999 SCT018 BKN060 08/07 Q1006 TEMPO FEW-18 RMK WHT TEMPO BLU

METARs EXPIRÉS :
  • 151220Z 04014KT 4500 -SHRA BKN015 BKN030 08/06 Q1006 TEMPO 9999 NSW FEW015 RMK GRN TEMPO BLU
  • 151215Z 03012KT 4500 -SHRA BKN022 BKN050 08/06 Q1006 TEMPO 9999 NSW FEW022 RMK GRN TEMPO BLU
  • 151150Z 03010KT 9999 FEW022 SCT050 BKN120 09/06 Q1006 BLU TEMPO SCT022 RMK BLU TEMPO WHT
  • 151121Z 02011KT 9999 FEW022 SCT150 BKN250 08/06 Q1007 NOSIG RMK BLU BLU
  • 151050Z 01011KT 9999 FEW022 BKN150 08/06 Q1007 NOSIG RMK BLU BLU
  • 151020Z 36010KT 9999 FEW022 BKN150 07/06 Q1007 NOSIG RMK BLU BLU
  • 150950Z 36011KT 9999 FEW020 BKN150 07/06 Q1007 TEMPO SCT020 RMK BLU TEMPO WHT

TAF AMD TAF EGYD
Valide du 15 à 12h jusqu'au 15 à 18h UTC


151221Z 1512/1518 03016KT 9999 FEW015 SCT028
TEMPO 1512/1518 03018G28KT SCT015
PROB30
TEMPO 1512/1517 4500 -SHRA
TEMPO 1517/1518 7000 RA SCT008



MET'MAP, la Météo Aéronautique d'un coup d'oeil ! - Copyright ORBIFLY Décembre 2007 - Disclaimer

ORBIFLY MET'MAP TEAM :

Programmation & Développement : Alexandra Zaïnal
Conception & Développement : Baudouin d'Aumeries
Co-Programmation & Développement : Marc-Olivier Méhu
Soutien technique & logistique : Manuel Goepfert

Contact : metmap@orbifly.com




SOURCES & CREDITS :

   NOAA